Federal Dam, Minnesota
Current Conditions -  °F | °C
As of 4:35 AM on Friday 31 Oct 2014 (Local Time) from KY49 Reporting Station
Overcast Overcast  
Wind Chill: 25°   Ceiling: 2800
Heat Index: 25°   Visibility: 10mi
Dew Point: 16°   Wind: 3mph
Humidity: 69%   Direction: 10°N
Pressure: 30.52"   Gusts: NA
Location:  47.25°N, 94.21°W
Report Text: KY49 310935Z AUTO 01003KT 10SM OVC028 M04/M09 A3052 RMK AO2 T10401090
Loading
Personal Weather Stations






























Interactive Weather Map
Tropical Storm Tracking
New forecast layout! Learn more

10-Day Weather Forecast

Advertisements
Track Severe Weather on mobile